sensor_id;sensor_type;location;lat;lon;timestamp;P1;durP1;ratioP1;P2;durP2;ratioP2
70322;SDS011;57735;56.264;43.898;2022-11-20T00:01:54;7.85;;;2.72;;
70322;SDS011;57735;56.264;43.898;2022-11-20T00:04:24;8.00;;;3.47;;
70322;SDS011;57735;56.264;43.898;2022-11-20T00:06:55;6.82;;;2.65;;
70322;SDS011;57735;56.264;43.898;2022-11-20T00:09:26;8.73;;;3.22;;
70322;SDS011;57735;56.264;43.898;2022-11-20T00:12:00;6.53;;;2.70;;
70322;SDS011;57735;56.264;43.898;2022-11-20T00:14:31;8.70;;;2.78;;
70322;SDS011;57735;56.264;43.898;2022-11-20T00:17:02;12.95;;;3.65;;
70322;SDS011;57735;56.264;43.898;2022-11-20T00:19:35;9.15;;;2.65;;
70322;SDS011;57735;56.264;43.898;2022-11-20T00:22:05;8.82;;;2.50;;
70322;SDS011;57735;56.264;43.898;2022-11-20T00:24:36;6.55;;;2.67;;
70322;SDS011;57735;56.264;43.898;2022-11-20T00:27:07;5.60;;;2.35;;
70322;SDS011;57735;56.264;43.898;2022-11-20T00:29:38;6.15;;;2.92;;
70322;SDS011;57735;56.264;43.898;2022-11-20T00:32:09;10.07;;;2.90;;
70322;SDS011;57735;56.264;43.898;2022-11-20T00:34:39;10.20;;;3.35;;
70322;SDS011;57735;56.264;43.898;2022-11-20T00:37:10;7.55;;;3.10;;
70322;SDS011;57735;56.264;43.898;2022-11-20T00:39:44;14.00;;;3.15;;
70322;SDS011;57735;56.264;43.898;2022-11-20T00:42:17;8.88;;;2.83;;
70322;SDS011;57735;56.264;43.898;2022-11-20T00:44:48;4.75;;;1.92;;
70322;SDS011;57735;56.264;43.898;2022-11-20T00:47:19;6.00;;;2.33;;
70322;SDS011;57735;56.264;43.898;2022-11-20T00:49:50;7.35;;;3.25;;
70322;SDS011;57735;56.264;43.898;2022-11-20T00:52:20;6.20;;;2.70;;
70322;SDS011;57735;56.264;43.898;2022-11-20T00:54:54;11.75;;;3.50;;
70322;SDS011;57735;56.264;43.898;2022-11-20T00:57:28;6.07;;;2.23;;
70322;SDS011;57735;56.264;43.898;2022-11-20T00:59:59;6.60;;;2.75;;
70322;SDS011;57735;56.264;43.898;2022-11-20T01:02:30;9.38;;;3.00;;
70322;SDS011;57735;56.264;43.898;2022-11-20T01:05:00;8.98;;;2.65;;
70322;SDS011;57735;56.264;43.898;2022-11-20T01:07:34;6.97;;;2.72;;
70322;SDS011;57735;56.264;43.898;2022-11-20T01:10:05;8.50;;;2.45;;
70322;SDS011;57735;56.264;43.898;2022-11-20T01:12:36;3.55;;;1.98;;
70322;SDS011;57735;56.264;43.898;2022-11-20T01:15:07;8.77;;;2.70;;
70322;SDS011;57735;56.264;43.898;2022-11-20T01:17:40;7.82;;;2.45;;
70322;SDS011;57735;56.264;43.898;2022-11-20T01:20:13;6.72;;;2.63;;
70322;SDS011;57735;56.264;43.898;2022-11-20T01:22:43;6.22;;;2.97;;
70322;SDS011;57735;56.264;43.898;2022-11-20T01:25:14;14.52;;;2.97;;
70322;SDS011;57735;56.264;43.898;2022-11-20T01:27:45;9.38;;;3.00;;
70322;SDS011;57735;56.264;43.898;2022-11-20T01:30:16;5.75;;;2.65;;
70322;SDS011;57735;56.264;43.898;2022-11-20T01:32:47;6.25;;;2.60;;
70322;SDS011;57735;56.264;43.898;2022-11-20T01:35:17;3.85;;;2.33;;
70322;SDS011;57735;56.264;43.898;2022-11-20T01:37:49;5.88;;;2.63;;
70322;SDS011;57735;56.264;43.898;2022-11-20T01:40:21;7.22;;;2.88;;
70322;SDS011;57735;56.264;43.898;2022-11-20T01:43:09;6.78;;;2.60;;
70322;SDS011;57735;56.264;43.898;2022-11-20T01:45:55;10.35;;;3.08;;
70322;SDS011;57735;56.264;43.898;2022-11-20T01:54:24;9.00;;;2.22;;
70322;SDS011;57735;56.264;43.898;2022-11-20T01:57:01;7.88;;;3.03;;
70322;SDS011;57735;56.264;43.898;2022-11-20T01:59:34;8.32;;;2.40;;
70322;SDS011;57735;56.264;43.898;2022-11-20T02:02:08;6.15;;;2.33;;
70322;SDS011;57735;56.264;43.898;2022-11-20T02:04:39;11.05;;;2.45;;
70322;SDS011;57735;56.264;43.898;2022-11-20T02:07:10;6.72;;;2.60;;
70322;SDS011;57735;56.264;43.898;2022-11-20T02:09:41;7.72;;;3.50;;
70322;SDS011;57735;56.264;43.898;2022-11-20T02:12:14;9.32;;;2.40;;
70322;SDS011;57735;56.264;43.898;2022-11-20T02:15:27;6.20;;;2.42;;
70322;SDS011;57735;56.264;43.898;2022-11-20T02:17:58;10.20;;;3.28;;
70322;SDS011;57735;56.264;43.898;2022-11-20T02:20:28;7.00;;;2.05;;
70322;SDS011;57735;56.264;43.898;2022-11-20T02:23:02;7.80;;;3.30;;
70322;SDS011;57735;56.264;43.898;2022-11-20T02:25:39;7.38;;;2.58;;
70322;SDS011;57735;56.264;43.898;2022-11-20T02:28:12;8.90;;;2.60;;
70322;SDS011;57735;56.264;43.898;2022-11-20T02:30:43;8.18;;;3.08;;
70322;SDS011;57735;56.264;43.898;2022-11-20T02:33:14;10.82;;;2.38;;
70322;SDS011;57735;56.264;43.898;2022-11-20T02:35:45;6.20;;;2.75;;
70322;SDS011;57735;56.264;43.898;2022-11-20T02:38:17;8.90;;;3.08;;
70322;SDS011;57735;56.264;43.898;2022-11-20T02:40:48;8.00;;;2.85;;
70322;SDS011;57735;56.264;43.898;2022-11-20T02:43:19;8.88;;;2.85;;
70322;SDS011;57735;56.264;43.898;2022-11-20T02:45:49;12.77;;;3.22;;
70322;SDS011;57735;56.264;43.898;2022-11-20T02:48:25;9.05;;;2.78;;
70322;SDS011;57735;56.264;43.898;2022-11-20T02:50:55;6.28;;;2.80;;
70322;SDS011;57735;56.264;43.898;2022-11-20T02:53:26;10.75;;;3.30;;
70322;SDS011;57735;56.264;43.898;2022-11-20T02:55:57;2.95;;;1.25;;
70322;SDS011;57735;56.264;43.898;2022-11-20T02:58:28;6.88;;;3.00;;
70322;SDS011;57735;56.264;43.898;2022-11-20T03:00:59;6.53;;;2.70;;
70322;SDS011;57735;56.264;43.898;2022-11-20T03:03:32;11.68;;;3.17;;
70322;SDS011;57735;56.264;43.898;2022-11-20T03:06:05;9.05;;;2.75;;
70322;SDS011;57735;56.264;43.898;2022-11-20T03:08:36;5.40;;;2.55;;
70322;SDS011;57735;56.264;43.898;2022-11-20T03:11:07;8.00;;;2.50;;
70322;SDS011;57735;56.264;43.898;2022-11-20T03:13:39;8.38;;;2.88;;
70322;SDS011;57735;56.264;43.898;2022-11-20T03:16:11;7.63;;;2.60;;
70322;SDS011;57735;56.264;43.898;2022-11-20T03:18:44;5.93;;;2.67;;
70322;SDS011;57735;56.264;43.898;2022-11-20T03:21:15;7.82;;;2.72;;
70322;SDS011;57735;56.264;43.898;2022-11-20T03:23:48;5.35;;;2.67;;
70322;SDS011;57735;56.264;43.898;2022-11-20T03:26:20;7.78;;;2.75;;
70322;SDS011;57735;56.264;43.898;2022-11-20T03:31:36;7.93;;;2.80;;
70322;SDS011;57735;56.264;43.898;2022-11-20T03:34:10;9.13;;;2.60;;
70322;SDS011;57735;56.264;43.898;2022-11-20T03:36:44;10.38;;;2.95;;
70322;SDS011;57735;56.264;43.898;2022-11-20T03:39:15;8.52;;;3.10;;
70322;SDS011;57735;56.264;43.898;2022-11-20T03:41:45;8.27;;;2.85;;
70322;SDS011;57735;56.264;43.898;2022-11-20T03:44:16;7.18;;;2.80;;
70322;SDS011;57735;56.264;43.898;2022-11-20T03:46:47;9.82;;;2.65;;
70322;SDS011;57735;56.264;43.898;2022-11-20T03:49:18;8.82;;;3.20;;
70322;SDS011;57735;56.264;43.898;2022-11-20T03:51:49;8.82;;;2.97;;
70322;SDS011;57735;56.264;43.898;2022-11-20T03:54:20;7.22;;;2.58;;
70322;SDS011;57735;56.264;43.898;2022-11-20T03:56:50;8.20;;;2.60;;
70322;SDS011;57735;56.264;43.898;2022-11-20T03:59:21;8.68;;;2.95;;
70322;SDS011;57735;56.264;43.898;2022-11-20T04:01:54;7.57;;;2.90;;
70322;SDS011;57735;56.264;43.898;2022-11-20T04:04:25;8.93;;;3.25;;
70322;SDS011;57735;56.264;43.898;2022-11-20T04:06:56;10.95;;;3.55;;
70322;SDS011;57735;56.264;43.898;2022-11-20T04:09:29;9.57;;;3.30;;
70322;SDS011;57735;56.264;43.898;2022-11-20T04:12:05;10.65;;;2.85;;
70322;SDS011;57735;56.264;43.898;2022-11-20T04:14:36;8.82;;;3.13;;
70322;SDS011;57735;56.264;43.898;2022-11-20T04:17:07;6.22;;;2.40;;
70322;SDS011;57735;56.264;43.898;2022-11-20T04:19:40;8.25;;;3.10;;
70322;SDS011;57735;56.264;43.898;2022-11-20T04:22:10;9.15;;;3.20;;
70322;SDS011;57735;56.264;43.898;2022-11-20T04:24:42;8.48;;;2.53;;
70322;SDS011;57735;56.264;43.898;2022-11-20T04:27:13;10.93;;;3.47;;
70322;SDS011;57735;56.264;43.898;2022-11-20T04:29:46;10.80;;;3.15;;
70322;SDS011;57735;56.264;43.898;2022-11-20T04:32:17;7.32;;;2.45;;
70322;SDS011;57735;56.264;43.898;2022-11-20T04:34:48;9.30;;;3.17;;
70322;SDS011;57735;56.264;43.898;2022-11-20T04:37:19;6.43;;;2.50;;
70322;SDS011;57735;56.264;43.898;2022-11-20T04:39:50;3.03;;;1.42;;
70322;SDS011;57735;56.264;43.898;2022-11-20T04:42:20;6.32;;;2.92;;
70322;SDS011;57735;56.264;43.898;2022-11-20T04:45:00;10.15;;;2.80;;
70322;SDS011;57735;56.264;43.898;2022-11-20T04:47:32;14.13;;;3.17;;
70322;SDS011;57735;56.264;43.898;2022-11-20T04:50:03;9.30;;;3.60;;
70322;SDS011;57735;56.264;43.898;2022-11-20T04:52:36;8.88;;;3.72;;
70322;SDS011;57735;56.264;43.898;2022-11-20T04:55:07;8.95;;;2.97;;
70322;SDS011;57735;56.264;43.898;2022-11-20T04:57:38;12.52;;;3.67;;
70322;SDS011;57735;56.264;43.898;2022-11-20T05:00:11;7.15;;;2.60;;
70322;SDS011;57735;56.264;43.898;2022-11-20T05:02:47;7.95;;;2.97;;
70322;SDS011;57735;56.264;43.898;2022-11-20T05:05:18;8.75;;;3.22;;
70322;SDS011;57735;56.264;43.898;2022-11-20T05:07:49;8.52;;;3.17;;
70322;SDS011;57735;56.264;43.898;2022-11-20T05:10:20;8.27;;;1.90;;
70322;SDS011;57735;56.264;43.898;2022-11-20T05:12:51;7.20;;;2.70;;
70322;SDS011;57735;56.264;43.898;2022-11-20T05:15:21;7.82;;;3.08;;
70322;SDS011;57735;56.264;43.898;2022-11-20T05:17:52;7.88;;;2.90;;
70322;SDS011;57735;56.264;43.898;2022-11-20T05:20:26;9.43;;;3.58;;
70322;SDS011;57735;56.264;43.898;2022-11-20T05:22:57;8.85;;;3.17;;
70322;SDS011;57735;56.264;43.898;2022-11-20T05:25:28;10.98;;;3.88;;
70322;SDS011;57735;56.264;43.898;2022-11-20T05:28:01;15.55;;;3.25;;
70322;SDS011;57735;56.264;43.898;2022-11-20T05:30:32;7.93;;;2.95;;
70322;SDS011;57735;56.264;43.898;2022-11-20T05:33:03;7.90;;;3.38;;
70322;SDS011;57735;56.264;43.898;2022-11-20T05:35:34;6.07;;;2.92;;
70322;SDS011;57735;56.264;43.898;2022-11-20T05:38:05;13.90;;;3.65;;
70322;SDS011;57735;56.264;43.898;2022-11-20T05:40:36;8.18;;;2.65;;
70322;SDS011;57735;56.264;43.898;2022-11-20T05:43:07;10.15;;;3.80;;
70322;SDS011;57735;56.264;43.898;2022-11-20T05:45:37;7.35;;;2.10;;
70322;SDS011;57735;56.264;43.898;2022-11-20T05:48:08;10.38;;;2.67;;
70322;SDS011;57735;56.264;43.898;2022-11-20T05:50:39;9.18;;;3.17;;
70322;SDS011;57735;56.264;43.898;2022-11-20T05:53:10;9.20;;;2.90;;
70322;SDS011;57735;56.264;43.898;2022-11-20T05:55:40;8.88;;;2.90;;
70322;SDS011;57735;56.264;43.898;2022-11-20T05:58:11;8.77;;;1.95;;
70322;SDS011;57735;56.264;43.898;2022-11-20T06:00:42;14.63;;;2.92;;
70322;SDS011;57735;56.264;43.898;2022-11-20T06:03:13;10.25;;;3.85;;
70322;SDS011;57735;56.264;43.898;2022-11-20T06:05:44;8.38;;;3.05;;
70322;SDS011;57735;56.264;43.898;2022-11-20T06:08:14;9.38;;;3.17;;
70322;SDS011;57735;56.264;43.898;2022-11-20T06:10:45;7.25;;;2.97;;
70322;SDS011;57735;56.264;43.898;2022-11-20T06:13:16;8.98;;;3.45;;
70322;SDS011;57735;56.264;43.898;2022-11-20T06:15:50;5.95;;;2.15;;
70322;SDS011;57735;56.264;43.898;2022-11-20T06:20:58;11.80;;;3.13;;
70322;SDS011;57735;56.264;43.898;2022-11-20T06:23:31;7.75;;;2.72;;
70322;SDS011;57735;56.264;43.898;2022-11-20T06:26:06;7.00;;;2.85;;
70322;SDS011;57735;56.264;43.898;2022-11-20T06:28:39;6.83;;;2.30;;
70322;SDS011;57735;56.264;43.898;2022-11-20T06:31:13;12.45;;;3.83;;
70322;SDS011;57735;56.264;43.898;2022-11-20T06:33:45;5.57;;;2.60;;
70322;SDS011;57735;56.264;43.898;2022-11-20T06:36:17;8.05;;;2.80;;
70322;SDS011;57735;56.264;43.898;2022-11-20T06:38:51;14.65;;;3.97;;
70322;SDS011;57735;56.264;43.898;2022-11-20T06:41:28;15.05;;;2.75;;
70322;SDS011;57735;56.264;43.898;2022-11-20T06:43:59;12.25;;;3.90;;
70322;SDS011;57735;56.264;43.898;2022-11-20T06:46:30;9.82;;;3.08;;
70322;SDS011;57735;56.264;43.898;2022-11-20T06:49:05;12.23;;;3.83;;
70322;SDS011;57735;56.264;43.898;2022-11-20T06:51:36;7.50;;;3.25;;
70322;SDS011;57735;56.264;43.898;2022-11-20T06:54:07;10.80;;;4.15;;
70322;SDS011;57735;56.264;43.898;2022-11-20T06:56:37;8.45;;;3.08;;
70322;SDS011;57735;56.264;43.898;2022-11-20T06:59:08;8.25;;;2.75;;
70322;SDS011;57735;56.264;43.898;2022-11-20T07:01:39;10.13;;;3.63;;
70322;SDS011;57735;56.264;43.898;2022-11-20T07:04:10;9.75;;;4.13;;
70322;SDS011;57735;56.264;43.898;2022-11-20T07:06:41;9.75;;;3.17;;
70322;SDS011;57735;56.264;43.898;2022-11-20T07:09:11;11.05;;;3.42;;
70322;SDS011;57735;56.264;43.898;2022-11-20T07:11:42;7.45;;;2.80;;
70322;SDS011;57735;56.264;43.898;2022-11-20T07:14:13;9.45;;;3.38;;
70322;SDS011;57735;56.264;43.898;2022-11-20T07:16:44;11.10;;;3.10;;
70322;SDS011;57735;56.264;43.898;2022-11-20T07:19:15;8.45;;;3.58;;
70322;SDS011;57735;56.264;43.898;2022-11-20T07:21:46;11.00;;;2.92;;
70322;SDS011;57735;56.264;43.898;2022-11-20T07:24:16;6.63;;;3.40;;
70322;SDS011;57735;56.264;43.898;2022-11-20T07:26:47;10.32;;;3.88;;
70322;SDS011;57735;56.264;43.898;2022-11-20T07:29:19;10.95;;;3.55;;
70322;SDS011;57735;56.264;43.898;2022-11-20T07:31:50;11.85;;;3.95;;
70322;SDS011;57735;56.264;43.898;2022-11-20T07:34:21;10.75;;;3.90;;
70322;SDS011;57735;56.264;43.898;2022-11-20T07:36:51;11.40;;;4.10;;
70322;SDS011;57735;56.264;43.898;2022-11-20T07:39:22;8.65;;;3.85;;
70322;SDS011;57735;56.264;43.898;2022-11-20T07:41:53;9.43;;;4.00;;
70322;SDS011;57735;56.264;43.898;2022-11-20T07:44:26;12.10;;;3.95;;
70322;SDS011;57735;56.264;43.898;2022-11-20T07:46:57;13.40;;;3.40;;
70322;SDS011;57735;56.264;43.898;2022-11-20T07:49:28;12.90;;;4.40;;
70322;SDS011;57735;56.264;43.898;2022-11-20T07:51:58;9.73;;;4.03;;
70322;SDS011;57735;56.264;43.898;2022-11-20T07:54:29;9.68;;;3.60;;
70322;SDS011;57735;56.264;43.898;2022-11-20T07:57:00;8.73;;;3.50;;
70322;SDS011;57735;56.264;43.898;2022-11-20T07:59:31;13.80;;;4.05;;
70322;SDS011;57735;56.264;43.898;2022-11-20T08:02:05;8.20;;;3.53;;
70322;SDS011;57735;56.264;43.898;2022-11-20T08:04:38;12.23;;;3.75;;
70322;SDS011;57735;56.264;43.898;2022-11-20T08:07:11;9.18;;;3.88;;
70322;SDS011;57735;56.264;43.898;2022-11-20T08:09:42;14.38;;;3.80;;
70322;SDS011;57735;56.264;43.898;2022-11-20T08:12:20;13.55;;;3.50;;
70322;SDS011;57735;56.264;43.898;2022-11-20T08:15:10;10.73;;;3.78;;
70322;SDS011;57735;56.264;43.898;2022-11-20T08:17:41;12.82;;;4.03;;
70322;SDS011;57735;56.264;43.898;2022-11-20T08:20:16;8.27;;;3.75;;
70322;SDS011;57735;56.264;43.898;2022-11-20T08:22:47;19.00;;;5.13;;
70322;SDS011;57735;56.264;43.898;2022-11-20T08:25:18;11.60;;;3.72;;
70322;SDS011;57735;56.264;43.898;2022-11-20T08:27:48;10.77;;;4.72;;
70322;SDS011;57735;56.264;43.898;2022-11-20T08:30:19;13.48;;;4.60;;
70322;SDS011;57735;56.264;43.898;2022-11-20T08:32:50;9.15;;;3.90;;
70322;SDS011;57735;56.264;43.898;2022-11-20T08:35:21;13.70;;;4.55;;
70322;SDS011;57735;56.264;43.898;2022-11-20T08:37:52;14.65;;;4.38;;
70322;SDS011;57735;56.264;43.898;2022-11-20T08:40:23;14.32;;;4.70;;
70322;SDS011;57735;56.264;43.898;2022-11-20T08:42:54;10.05;;;4.25;;
70322;SDS011;57735;56.264;43.898;2022-11-20T08:45:27;12.65;;;4.68;;
70322;SDS011;57735;56.264;43.898;2022-11-20T08:48:02;13.43;;;4.47;;
70322;SDS011;57735;56.264;43.898;2022-11-20T08:50:38;17.40;;;5.20;;
70322;SDS011;57735;56.264;43.898;2022-11-20T08:53:09;8.32;;;3.88;;
70322;SDS011;57735;56.264;43.898;2022-11-20T08:55:40;19.77;;;6.70;;
70322;SDS011;57735;56.264;43.898;2022-11-20T08:58:13;13.68;;;5.32;;
70322;SDS011;57735;56.264;43.898;2022-11-20T09:00:43;12.02;;;4.95;;
70322;SDS011;57735;56.264;43.898;2022-11-20T09:03:14;12.45;;;4.05;;
70322;SDS011;57735;56.264;43.898;2022-11-20T09:05:45;11.63;;;4.97;;
70322;SDS011;57735;56.264;43.898;2022-11-20T09:08:16;20.90;;;6.38;;
70322;SDS011;57735;56.264;43.898;2022-11-20T09:10:50;11.77;;;4.28;;
70322;SDS011;57735;56.264;43.898;2022-11-20T09:13:22;15.18;;;4.97;;
70322;SDS011;57735;56.264;43.898;2022-11-20T09:15:57;15.60;;;5.25;;
70322;SDS011;57735;56.264;43.898;2022-11-20T09:18:30;17.85;;;5.60;;
70322;SDS011;57735;56.264;43.898;2022-11-20T09:21:06;15.88;;;5.68;;
70322;SDS011;57735;56.264;43.898;2022-11-20T09:23:41;14.65;;;4.63;;
70322;SDS011;57735;56.264;43.898;2022-11-20T09:26:12;13.27;;;4.68;;
70322;SDS011;57735;56.264;43.898;2022-11-20T09:28:46;8.65;;;3.53;;
70322;SDS011;57735;56.264;43.898;2022-11-20T09:31:23;17.23;;;4.85;;
70322;SDS011;57735;56.264;43.898;2022-11-20T09:33:56;12.98;;;4.05;;
70322;SDS011;57735;56.264;43.898;2022-11-20T09:36:26;8.73;;;4.20;;
70322;SDS011;57735;56.264;43.898;2022-11-20T09:38:57;9.52;;;3.90;;
70322;SDS011;57735;56.264;43.898;2022-11-20T09:47:45;13.15;;;4.85;;
70322;SDS011;57735;56.264;43.898;2022-11-20T09:50:25;17.98;;;6.20;;
70322;SDS011;57735;56.264;43.898;2022-11-20T09:53:30;12.88;;;4.65;;
70322;SDS011;57735;56.264;43.898;2022-11-20T09:56:15;15.43;;;5.22;;
70322;SDS011;57735;56.264;43.898;2022-11-20T09:58:51;14.23;;;4.97;;
70322;SDS011;57735;56.264;43.898;2022-11-20T10:01:26;15.77;;;5.72;;
70322;SDS011;57735;56.264;43.898;2022-11-20T10:04:03;11.02;;;4.93;;
70322;SDS011;57735;56.264;43.898;2022-11-20T10:09:31;21.23;;;5.55;;
70322;SDS011;57735;56.264;43.898;2022-11-20T10:12:31;17.67;;;5.65;;
70322;SDS011;57735;56.264;43.898;2022-11-20T10:15:33;13.88;;;5.85;;
70322;SDS011;57735;56.264;43.898;2022-11-20T10:18:21;17.42;;;6.07;;
70322;SDS011;57735;56.264;43.898;2022-11-20T10:29:32;11.20;;;4.72;;
70322;SDS011;57735;56.264;43.898;2022-11-20T10:32:11;13.50;;;4.50;;
70322;SDS011;57735;56.264;43.898;2022-11-20T10:34:48;18.15;;;5.50;;
70322;SDS011;57735;56.264;43.898;2022-11-20T10:37:32;12.32;;;4.15;;
70322;SDS011;57735;56.264;43.898;2022-11-20T10:42:52;15.18;;;4.82;;
70322;SDS011;57735;56.264;43.898;2022-11-20T10:48:07;13.88;;;4.72;;
70322;SDS011;57735;56.264;43.898;2022-11-20T10:53:57;11.55;;;4.45;;
70322;SDS011;57735;56.264;43.898;2022-11-20T10:56:49;21.00;;;5.53;;
70322;SDS011;57735;56.264;43.898;2022-11-20T11:01:55;18.42;;;5.43;;
70322;SDS011;57735;56.264;43.898;2022-11-20T11:04:33;15.07;;;5.55;;
70322;SDS011;57735;56.264;43.898;2022-11-20T11:07:24;16.48;;;5.03;;
70322;SDS011;57735;56.264;43.898;2022-11-20T11:09:59;19.88;;;6.60;;
70322;SDS011;57735;56.264;43.898;2022-11-20T11:12:30;13.70;;;5.82;;
70322;SDS011;57735;56.264;43.898;2022-11-20T11:15:01;15.60;;;5.03;;
70322;SDS011;57735;56.264;43.898;2022-11-20T11:17:33;16.15;;;5.80;;
70322;SDS011;57735;56.264;43.898;2022-11-20T11:22:45;18.17;;;5.15;;
70322;SDS011;57735;56.264;43.898;2022-11-20T11:25:39;18.95;;;5.80;;
70322;SDS011;57735;56.264;43.898;2022-11-20T11:30:49;12.60;;;5.03;;
70322;SDS011;57735;56.264;43.898;2022-11-20T11:33:21;13.13;;;5.07;;
70322;SDS011;57735;56.264;43.898;2022-11-20T11:36:00;11.88;;;4.30;;
70322;SDS011;57735;56.264;43.898;2022-11-20T11:41:15;15.65;;;5.13;;
70322;SDS011;57735;56.264;43.898;2022-11-20T11:43:56;19.75;;;6.25;;
70322;SDS011;57735;56.264;43.898;2022-11-20T11:46:49;22.52;;;7.13;;
70322;SDS011;57735;56.264;43.898;2022-11-20T11:49:26;11.95;;;4.60;;
70322;SDS011;57735;56.264;43.898;2022-11-20T11:52:05;10.48;;;4.38;;
70322;SDS011;57735;56.264;43.898;2022-11-20T11:54:57;20.42;;;6.18;;
70322;SDS011;57735;56.264;43.898;2022-11-20T12:05:20;18.40;;;7.15;;
70322;SDS011;57735;56.264;43.898;2022-11-20T12:08:18;14.68;;;5.45;;
70322;SDS011;57735;56.264;43.898;2022-11-20T12:11:04;16.77;;;5.75;;
70322;SDS011;57735;56.264;43.898;2022-11-20T12:14:04;14.68;;;4.47;;
70322;SDS011;57735;56.264;43.898;2022-11-20T12:16:43;12.23;;;4.43;;
70322;SDS011;57735;56.264;43.898;2022-11-20T12:19:14;11.65;;;3.92;;
70322;SDS011;57735;56.264;43.898;2022-11-20T12:27:20;16.40;;;5.13;;
70322;SDS011;57735;56.264;43.898;2022-11-20T12:30:16;16.63;;;5.95;;
70322;SDS011;57735;56.264;43.898;2022-11-20T12:48:12;13.38;;;4.82;;
70322;SDS011;57735;56.264;43.898;2022-11-20T13:01:56;17.17;;;5.38;;
70322;SDS011;57735;56.264;43.898;2022-11-20T13:07:08;17.73;;;6.10;;
70322;SDS011;57735;56.264;43.898;2022-11-20T13:09:45;17.10;;;5.38;;
70322;SDS011;57735;56.264;43.898;2022-11-20T13:12:24;20.48;;;5.70;;
70322;SDS011;57735;56.264;43.898;2022-11-20T13:15:08;17.70;;;7.00;;
70322;SDS011;57735;56.264;43.898;2022-11-20T13:18:00;24.15;;;7.35;;
70322;SDS011;57735;56.264;43.898;2022-11-20T13:20:36;17.83;;;6.65;;
70322;SDS011;57735;56.264;43.898;2022-11-20T13:23:22;16.40;;;6.40;;
70322;SDS011;57735;56.264;43.898;2022-11-20T13:26:14;20.73;;;7.20;;
70322;SDS011;57735;56.264;43.898;2022-11-20T13:29:03;20.80;;;8.05;;
70322;SDS011;57735;56.264;43.898;2022-11-20T13:31:42;21.85;;;7.68;;
70322;SDS011;57735;56.264;43.898;2022-11-20T13:34:25;17.35;;;6.55;;
70322;SDS011;57735;56.264;43.898;2022-11-20T13:37:00;25.33;;;7.97;;
70322;SDS011;57735;56.264;43.898;2022-11-20T13:39:32;20.05;;;7.20;;
70322;SDS011;57735;56.264;43.898;2022-11-20T13:44:46;18.67;;;5.55;;
70322;SDS011;57735;56.264;43.898;2022-11-20T13:47:24;15.90;;;5.13;;
70322;SDS011;57735;56.264;43.898;2022-11-20T13:49:57;15.98;;;5.00;;
70322;SDS011;57735;56.264;43.898;2022-11-20T13:53:06;18.35;;;6.53;;
70322;SDS011;57735;56.264;43.898;2022-11-20T14:03:38;15.07;;;4.95;;
70322;SDS011;57735;56.264;43.898;2022-11-20T14:06:26;15.60;;;6.05;;
70322;SDS011;57735;56.264;43.898;2022-11-20T14:08:59;14.57;;;5.18;;
70322;SDS011;57735;56.264;43.898;2022-11-20T14:11:30;12.95;;;5.20;;
70322;SDS011;57735;56.264;43.898;2022-11-20T14:16:34;16.23;;;5.55;;
70322;SDS011;57735;56.264;43.898;2022-11-20T14:21:54;15.30;;;5.88;;
70322;SDS011;57735;56.264;43.898;2022-11-20T14:24:37;16.63;;;5.03;;
70322;SDS011;57735;56.264;43.898;2022-11-20T14:27:16;19.00;;;6.13;;
70322;SDS011;57735;56.264;43.898;2022-11-20T14:29:49;31.55;;;9.45;;
70322;SDS011;57735;56.264;43.898;2022-11-20T14:32:21;18.17;;;6.13;;
70322;SDS011;57735;56.264;43.898;2022-11-20T14:34:59;17.05;;;6.88;;
70322;SDS011;57735;56.264;43.898;2022-11-20T14:37:38;19.38;;;6.40;;
70322;SDS011;57735;56.264;43.898;2022-11-20T14:43:01;22.33;;;7.55;;
70322;SDS011;57735;56.264;43.898;2022-11-20T14:45:48;18.42;;;7.72;;
70322;SDS011;57735;56.264;43.898;2022-11-20T14:48:35;13.68;;;5.60;;
70322;SDS011;57735;56.264;43.898;2022-11-20T14:51:10;22.75;;;7.00;;
70322;SDS011;57735;56.264;43.898;2022-11-20T14:56:12;16.55;;;4.82;;
70322;SDS011;57735;56.264;43.898;2022-11-20T14:58:57;14.65;;;5.18;;
70322;SDS011;57735;56.264;43.898;2022-11-20T15:01:29;18.75;;;6.28;;
70322;SDS011;57735;56.264;43.898;2022-11-20T15:04:06;19.27;;;5.20;;
70322;SDS011;57735;56.264;43.898;2022-11-20T15:06:48;16.70;;;6.25;;
70322;SDS011;57735;56.264;43.898;2022-11-20T15:09:21;15.95;;;6.15;;
70322;SDS011;57735;56.264;43.898;2022-11-20T15:11:58;17.05;;;7.63;;
70322;SDS011;57735;56.264;43.898;2022-11-20T15:14:32;20.10;;;7.35;;
70322;SDS011;57735;56.264;43.898;2022-11-20T15:17:07;20.80;;;6.55;;
70322;SDS011;57735;56.264;43.898;2022-11-20T15:19:41;18.27;;;6.28;;
70322;SDS011;57735;56.264;43.898;2022-11-20T15:22:12;18.30;;;6.28;;
70322;SDS011;57735;56.264;43.898;2022-11-20T15:24:51;17.55;;;7.22;;
70322;SDS011;57735;56.264;43.898;2022-11-20T15:27:22;17.60;;;6.75;;
70322;SDS011;57735;56.264;43.898;2022-11-20T15:29:53;14.23;;;5.53;;
70322;SDS011;57735;56.264;43.898;2022-11-20T15:32:24;17.13;;;6.38;;
70322;SDS011;57735;56.264;43.898;2022-11-20T15:34:55;13.88;;;5.28;;
70322;SDS011;57735;56.264;43.898;2022-11-20T15:37:26;11.05;;;3.72;;
70322;SDS011;57735;56.264;43.898;2022-11-20T15:39:56;11.93;;;4.97;;
70322;SDS011;57735;56.264;43.898;2022-11-20T15:42:27;21.55;;;6.25;;
70322;SDS011;57735;56.264;43.898;2022-11-20T15:44:58;19.20;;;6.10;;
70322;SDS011;57735;56.264;43.898;2022-11-20T15:47:30;13.80;;;4.95;;
70322;SDS011;57735;56.264;43.898;2022-11-20T15:50:03;13.52;;;4.55;;
70322;SDS011;57735;56.264;43.898;2022-11-20T15:52:39;10.30;;;4.55;;
70322;SDS011;57735;56.264;43.898;2022-11-20T15:55:10;14.40;;;4.65;;
70322;SDS011;57735;56.264;43.898;2022-11-20T15:57:41;12.77;;;4.80;;
70322;SDS011;57735;56.264;43.898;2022-11-20T16:00:12;14.35;;;4.40;;
70322;SDS011;57735;56.264;43.898;2022-11-20T16:02:43;13.32;;;4.47;;
70322;SDS011;57735;56.264;43.898;2022-11-20T16:05:14;12.48;;;4.90;;
70322;SDS011;57735;56.264;43.898;2022-11-20T16:07:45;11.15;;;3.75;;
70322;SDS011;57735;56.264;43.898;2022-11-20T16:10:16;15.52;;;4.70;;
70322;SDS011;57735;56.264;43.898;2022-11-20T16:12:47;10.77;;;4.50;;
70322;SDS011;57735;56.264;43.898;2022-11-20T16:15:36;17.33;;;5.15;;
70322;SDS011;57735;56.264;43.898;2022-11-20T16:18:19;16.92;;;5.15;;
70322;SDS011;57735;56.264;43.898;2022-11-20T16:20:52;14.98;;;5.40;;
70322;SDS011;57735;56.264;43.898;2022-11-20T16:23:26;13.75;;;4.72;;
70322;SDS011;57735;56.264;43.898;2022-11-20T16:25:57;13.32;;;4.72;;
70322;SDS011;57735;56.264;43.898;2022-11-20T16:28:27;20.33;;;5.82;;
70322;SDS011;57735;56.264;43.898;2022-11-20T16:31:07;12.10;;;4.57;;
70322;SDS011;57735;56.264;43.898;2022-11-20T16:33:40;11.40;;;4.80;;
70322;SDS011;57735;56.264;43.898;2022-11-20T16:36:12;15.65;;;5.28;;
70322;SDS011;57735;56.264;43.898;2022-11-20T16:38:44;15.73;;;4.68;;
70322;SDS011;57735;56.264;43.898;2022-11-20T16:41:16;11.48;;;5.03;;
70322;SDS011;57735;56.264;43.898;2022-11-20T16:43:55;21.10;;;6.38;;
70322;SDS011;57735;56.264;43.898;2022-11-20T16:46:32;15.10;;;5.45;;
70322;SDS011;57735;56.264;43.898;2022-11-20T16:49:08;16.08;;;4.93;;
70322;SDS011;57735;56.264;43.898;2022-11-20T16:51:42;13.40;;;4.93;;
70322;SDS011;57735;56.264;43.898;2022-11-20T16:54:15;17.85;;;4.72;;
70322;SDS011;57735;56.264;43.898;2022-11-20T16:56:46;13.82;;;5.35;;
70322;SDS011;57735;56.264;43.898;2022-11-20T16:59:17;19.98;;;6.40;;